CYSG weather

St Georges Airport
St Georges, Quebec, Canada

Public forecast

Using degrees Celsius for public forecast. Weather courtesy of forecast.io.

Closest aviation weather report (METAR) to St Georges Airport

Closest report is Quebec Jean Lesage International Airport, 50.3 nm (93.1 km) NNW. Retrieved 2019/10/14 14:00 UTC (45 minutes ago):

CYQB 141400Z 08005KT 30SM FEW050 SCT160 BKN200 10/05 A2994 RMK SC1AC3CI2 SC TR SLP141

Closest aviation forecast (TAF) to St Georges Airport

Closest forecast is Quebec Jean Lesage International Airport, 50.3 nm (93.1 km) NNW. Retrieved 2019/10/14 12:42 UTC (2 hours ago):

TAF CYQB 141139Z 1412/1512 02006KT P6SM SKC FM141800 VRB03KT P6SM BKN140 FM142000 24008KT P6SM BKN050 OVC120 FM142200 24012KT P6SM -SHRA BKN015 OVC050 FM150300 24008KT P6SM OVC012 PROB30 1509/1512 4SM BR BKN005 OVC012 RMK NXT FCST BY 141800Z